sensor_id;sensor_type;location;lat;lon;timestamp;P1;durP1;ratioP1;P2;durP2;ratioP2
23668;SDS011;12011;47.422;15.018;2023-07-13T00:02:31;2.82;;;2.82;;
23668;SDS011;12011;47.422;15.018;2023-07-13T00:05:01;2.63;;;2.63;;
23668;SDS011;12011;47.422;15.018;2023-07-13T00:07:32;2.52;;;2.52;;
23668;SDS011;12011;47.422;15.018;2023-07-13T00:10:04;2.20;;;2.20;;
23668;SDS011;12011;47.422;15.018;2023-07-13T00:12:37;2.07;;;2.07;;
23668;SDS011;12011;47.422;15.018;2023-07-13T00:15:10;1.75;;;1.75;;
23668;SDS011;12011;47.422;15.018;2023-07-13T00:17:46;1.93;;;1.93;;
23668;SDS011;12011;47.422;15.018;2023-07-13T00:20:16;1.57;;;1.57;;
23668;SDS011;12011;47.422;15.018;2023-07-13T00:22:47;1.59;;;1.59;;
23668;SDS011;12011;47.422;15.018;2023-07-13T00:28:34;1.74;;;1.74;;
23668;SDS011;12011;47.422;15.018;2023-07-13T00:31:03;1.65;;;1.65;;
23668;SDS011;12011;47.422;15.018;2023-07-13T00:33:33;1.72;;;1.72;;
23668;SDS011;12011;47.422;15.018;2023-07-13T00:36:03;1.78;;;1.78;;
23668;SDS011;12011;47.422;15.018;2023-07-13T00:38:33;1.80;;;1.80;;
23668;SDS011;12011;47.422;15.018;2023-07-13T00:41:05;1.58;;;1.58;;
23668;SDS011;12011;47.422;15.018;2023-07-13T00:43:35;1.58;;;1.58;;
23668;SDS011;12011;47.422;15.018;2023-07-13T00:46:11;1.79;;;1.79;;
23668;SDS011;12011;47.422;15.018;2023-07-13T00:48:51;2.16;;;2.16;;
23668;SDS011;12011;47.422;15.018;2023-07-13T00:51:25;2.02;;;2.02;;
23668;SDS011;12011;47.422;15.018;2023-07-13T00:54:03;1.96;;;1.96;;
23668;SDS011;12011;47.422;15.018;2023-07-13T00:56:41;1.98;;;1.98;;
23668;SDS011;12011;47.422;15.018;2023-07-13T00:59:14;2.36;;;2.36;;
23668;SDS011;12011;47.422;15.018;2023-07-13T01:01:46;2.13;;;2.13;;
23668;SDS011;12011;47.422;15.018;2023-07-13T01:04:17;2.15;;;2.15;;
23668;SDS011;12011;47.422;15.018;2023-07-13T01:06:47;2.17;;;2.17;;
23668;SDS011;12011;47.422;15.018;2023-07-13T01:09:16;2.13;;;2.13;;
23668;SDS011;12011;47.422;15.018;2023-07-13T01:11:50;2.27;;;2.27;;
23668;SDS011;12011;47.422;15.018;2023-07-13T01:14:19;2.21;;;2.21;;
23668;SDS011;12011;47.422;15.018;2023-07-13T01:16:49;2.35;;;2.35;;
23668;SDS011;12011;47.422;15.018;2023-07-13T01:19:24;2.42;;;2.42;;
23668;SDS011;12011;47.422;15.018;2023-07-13T01:22:08;2.41;;;2.41;;
23668;SDS011;12011;47.422;15.018;2023-07-13T01:24:42;2.15;;;2.15;;
23668;SDS011;12011;47.422;15.018;2023-07-13T01:27:16;2.32;;;2.32;;
23668;SDS011;12011;47.422;15.018;2023-07-13T01:29:51;2.09;;;2.09;;
23668;SDS011;12011;47.422;15.018;2023-07-13T01:32:30;2.17;;;2.17;;
23668;SDS011;12011;47.422;15.018;2023-07-13T01:35:00;1.84;;;1.84;;
23668;SDS011;12011;47.422;15.018;2023-07-13T01:37:32;1.51;;;1.51;;
23668;SDS011;12011;47.422;15.018;2023-07-13T01:40:01;1.74;;;1.74;;
23668;SDS011;12011;47.422;15.018;2023-07-13T01:42:31;1.64;;;1.64;;
23668;SDS011;12011;47.422;15.018;2023-07-13T01:45:01;1.73;;;1.73;;
23668;SDS011;12011;47.422;15.018;2023-07-13T01:47:31;1.73;;;1.73;;
23668;SDS011;12011;47.422;15.018;2023-07-13T01:50:00;2.04;;;2.04;;
23668;SDS011;12011;47.422;15.018;2023-07-13T01:52:32;1.91;;;1.91;;
23668;SDS011;12011;47.422;15.018;2023-07-13T01:55:02;2.13;;;2.13;;
23668;SDS011;12011;47.422;15.018;2023-07-13T01:57:33;2.28;;;2.28;;
23668;SDS011;12011;47.422;15.018;2023-07-13T02:00:04;2.11;;;2.11;;
23668;SDS011;12011;47.422;15.018;2023-07-13T02:02:46;2.14;;;2.14;;
23668;SDS011;12011;47.422;15.018;2023-07-13T02:05:15;1.97;;;1.97;;
23668;SDS011;12011;47.422;15.018;2023-07-13T02:07:49;1.88;;;1.88;;
23668;SDS011;12011;47.422;15.018;2023-07-13T02:10:19;1.99;;;1.99;;
23668;SDS011;12011;47.422;15.018;2023-07-13T02:12:49;1.66;;;1.66;;
23668;SDS011;12011;47.422;15.018;2023-07-13T02:15:19;1.68;;;1.68;;
23668;SDS011;12011;47.422;15.018;2023-07-13T02:17:49;1.65;;;1.65;;
23668;SDS011;12011;47.422;15.018;2023-07-13T02:20:18;1.68;;;1.68;;
23668;SDS011;12011;47.422;15.018;2023-07-13T02:22:51;1.69;;;1.69;;
23668;SDS011;12011;47.422;15.018;2023-07-13T02:25:20;1.55;;;1.55;;
23668;SDS011;12011;47.422;15.018;2023-07-13T02:27:50;1.60;;;1.60;;
23668;SDS011;12011;47.422;15.018;2023-07-13T02:30:20;1.49;;;1.49;;
23668;SDS011;12011;47.422;15.018;2023-07-13T02:32:53;1.28;;;1.28;;
23668;SDS011;12011;47.422;15.018;2023-07-13T02:35:23;1.49;;;1.49;;
23668;SDS011;12011;47.422;15.018;2023-07-13T02:37:55;1.37;;;1.37;;
23668;SDS011;12011;47.422;15.018;2023-07-13T02:40:27;1.47;;;1.47;;
23668;SDS011;12011;47.422;15.018;2023-07-13T02:42:58;1.40;;;1.40;;
23668;SDS011;12011;47.422;15.018;2023-07-13T02:45:31;1.66;;;1.66;;
23668;SDS011;12011;47.422;15.018;2023-07-13T02:48:00;1.60;;;1.60;;
23668;SDS011;12011;47.422;15.018;2023-07-13T02:50:30;1.60;;;1.60;;
23668;SDS011;12011;47.422;15.018;2023-07-13T02:53:02;1.56;;;1.56;;
23668;SDS011;12011;47.422;15.018;2023-07-13T02:55:31;1.52;;;1.52;;
23668;SDS011;12011;47.422;15.018;2023-07-13T02:58:02;1.60;;;1.60;;
23668;SDS011;12011;47.422;15.018;2023-07-13T03:00:31;1.69;;;1.69;;
23668;SDS011;12011;47.422;15.018;2023-07-13T03:03:01;1.83;;;1.83;;
23668;SDS011;12011;47.422;15.018;2023-07-13T03:05:30;1.69;;;1.69;;
23668;SDS011;12011;47.422;15.018;2023-07-13T03:08:03;1.77;;;1.77;;
23668;SDS011;12011;47.422;15.018;2023-07-13T03:10:33;1.63;;;1.63;;
23668;SDS011;12011;47.422;15.018;2023-07-13T03:13:04;1.67;;;1.67;;
23668;SDS011;12011;47.422;15.018;2023-07-13T03:15:35;1.80;;;1.80;;
23668;SDS011;12011;47.422;15.018;2023-07-13T03:18:04;1.86;;;1.86;;
23668;SDS011;12011;47.422;15.018;2023-07-13T03:20:34;1.73;;;1.73;;
23668;SDS011;12011;47.422;15.018;2023-07-13T03:23:06;1.70;;;1.70;;
23668;SDS011;12011;47.422;15.018;2023-07-13T03:25:37;1.79;;;1.79;;
23668;SDS011;12011;47.422;15.018;2023-07-13T03:28:06;1.87;;;1.87;;
23668;SDS011;12011;47.422;15.018;2023-07-13T03:30:36;1.85;;;1.85;;
23668;SDS011;12011;47.422;15.018;2023-07-13T03:33:06;1.93;;;1.93;;
23668;SDS011;12011;47.422;15.018;2023-07-13T03:35:40;1.93;;;1.93;;
23668;SDS011;12011;47.422;15.018;2023-07-13T03:38:12;2.01;;;2.01;;
23668;SDS011;12011;47.422;15.018;2023-07-13T03:40:42;2.07;;;2.07;;
23668;SDS011;12011;47.422;15.018;2023-07-13T03:43:12;2.11;;;2.11;;
23668;SDS011;12011;47.422;15.018;2023-07-13T03:45:41;2.19;;;2.19;;
23668;SDS011;12011;47.422;15.018;2023-07-13T03:48:11;2.01;;;2.01;;
23668;SDS011;12011;47.422;15.018;2023-07-13T03:50:41;2.05;;;2.05;;
23668;SDS011;12011;47.422;15.018;2023-07-13T03:53:13;1.87;;;1.87;;
23668;SDS011;12011;47.422;15.018;2023-07-13T03:55:44;1.93;;;1.93;;
23668;SDS011;12011;47.422;15.018;2023-07-13T03:58:24;1.91;;;1.91;;
23668;SDS011;12011;47.422;15.018;2023-07-13T04:01:09;1.95;;;1.95;;
23668;SDS011;12011;47.422;15.018;2023-07-13T04:03:41;1.93;;;1.93;;
23668;SDS011;12011;47.422;15.018;2023-07-13T04:06:13;1.83;;;1.83;;
23668;SDS011;12011;47.422;15.018;2023-07-13T04:08:52;1.85;;;1.85;;
23668;SDS011;12011;47.422;15.018;2023-07-13T04:11:26;1.86;;;1.86;;
23668;SDS011;12011;47.422;15.018;2023-07-13T04:13:59;1.95;;;1.95;;
23668;SDS011;12011;47.422;15.018;2023-07-13T04:16:29;1.96;;;1.96;;
23668;SDS011;12011;47.422;15.018;2023-07-13T04:18:58;1.77;;;1.77;;
23668;SDS011;12011;47.422;15.018;2023-07-13T04:21:28;2.24;;;2.24;;
23668;SDS011;12011;47.422;15.018;2023-07-13T04:24:02;2.12;;;2.12;;
23668;SDS011;12011;47.422;15.018;2023-07-13T04:26:33;2.33;;;2.33;;
23668;SDS011;12011;47.422;15.018;2023-07-13T04:29:04;2.30;;;2.30;;
23668;SDS011;12011;47.422;15.018;2023-07-13T04:31:34;2.32;;;2.32;;
23668;SDS011;12011;47.422;15.018;2023-07-13T04:34:03;2.24;;;2.24;;
23668;SDS011;12011;47.422;15.018;2023-07-13T04:36:33;2.14;;;2.14;;
23668;SDS011;12011;47.422;15.018;2023-07-13T04:39:07;2.04;;;2.04;;
23668;SDS011;12011;47.422;15.018;2023-07-13T04:41:37;1.71;;;1.71;;
23668;SDS011;12011;47.422;15.018;2023-07-13T04:44:06;1.88;;;1.88;;
23668;SDS011;12011;47.422;15.018;2023-07-13T04:46:36;1.70;;;1.70;;
23668;SDS011;12011;47.422;15.018;2023-07-13T04:49:06;1.87;;;1.87;;
23668;SDS011;12011;47.422;15.018;2023-07-13T04:51:36;1.89;;;1.89;;
23668;SDS011;12011;47.422;15.018;2023-07-13T04:54:08;1.69;;;1.69;;
23668;SDS011;12011;47.422;15.018;2023-07-13T04:56:38;1.98;;;1.98;;
23668;SDS011;12011;47.422;15.018;2023-07-13T04:59:07;2.13;;;2.13;;
23668;SDS011;12011;47.422;15.018;2023-07-13T05:01:37;1.92;;;1.92;;
23668;SDS011;12011;47.422;15.018;2023-07-13T05:04:07;1.75;;;1.75;;
23668;SDS011;12011;47.422;15.018;2023-07-13T05:06:36;1.74;;;1.74;;
23668;SDS011;12011;47.422;15.018;2023-07-13T05:09:08;1.59;;;1.59;;
23668;SDS011;12011;47.422;15.018;2023-07-13T05:11:38;1.81;;;1.81;;
23668;SDS011;12011;47.422;15.018;2023-07-13T05:14:07;1.64;;;1.64;;
23668;SDS011;12011;47.422;15.018;2023-07-13T05:16:38;1.76;;;1.76;;
23668;SDS011;12011;47.422;15.018;2023-07-13T05:19:07;1.75;;;1.75;;
23668;SDS011;12011;47.422;15.018;2023-07-13T05:21:37;1.74;;;1.74;;
23668;SDS011;12011;47.422;15.018;2023-07-13T05:24:10;1.78;;;1.78;;
23668;SDS011;12011;47.422;15.018;2023-07-13T05:26:42;1.65;;;1.65;;
23668;SDS011;12011;47.422;15.018;2023-07-13T05:29:11;1.59;;;1.59;;
23668;SDS011;12011;47.422;15.018;2023-07-13T05:31:41;1.65;;;1.65;;
23668;SDS011;12011;47.422;15.018;2023-07-13T05:34:11;1.40;;;1.40;;
23668;SDS011;12011;47.422;15.018;2023-07-13T05:36:40;1.55;;;1.55;;
23668;SDS011;12011;47.422;15.018;2023-07-13T05:39:15;1.55;;;1.55;;
23668;SDS011;12011;47.422;15.018;2023-07-13T05:41:45;1.35;;;1.35;;
23668;SDS011;12011;47.422;15.018;2023-07-13T05:44:15;1.30;;;1.30;;
23668;SDS011;12011;47.422;15.018;2023-07-13T05:46:45;1.23;;;1.23;;
23668;SDS011;12011;47.422;15.018;2023-07-13T05:49:14;1.22;;;1.22;;
23668;SDS011;12011;47.422;15.018;2023-07-13T05:51:44;1.11;;;1.11;;
23668;SDS011;12011;47.422;15.018;2023-07-13T05:54:16;1.09;;;1.09;;
23668;SDS011;12011;47.422;15.018;2023-07-13T05:56:46;1.14;;;1.14;;
23668;SDS011;12011;47.422;15.018;2023-07-13T05:59:15;1.18;;;1.18;;
23668;SDS011;12011;47.422;15.018;2023-07-13T06:01:46;1.13;;;1.13;;
23668;SDS011;12011;47.422;15.018;2023-07-13T06:04:17;1.24;;;1.24;;
23668;SDS011;12011;47.422;15.018;2023-07-13T06:06:47;1.25;;;1.25;;
23668;SDS011;12011;47.422;15.018;2023-07-13T06:09:19;1.08;;;1.08;;
23668;SDS011;12011;47.422;15.018;2023-07-13T06:11:49;0.76;;;0.76;;
23668;SDS011;12011;47.422;15.018;2023-07-13T06:14:18;0.78;;;0.78;;
23668;SDS011;12011;47.422;15.018;2023-07-13T06:16:48;0.94;;;0.94;;
23668;SDS011;12011;47.422;15.018;2023-07-13T06:19:18;0.90;;;0.90;;
23668;SDS011;12011;47.422;15.018;2023-07-13T06:21:47;1.07;;;1.07;;
23668;SDS011;12011;47.422;15.018;2023-07-13T06:24:19;1.03;;;1.03;;
23668;SDS011;12011;47.422;15.018;2023-07-13T06:26:50;1.08;;;1.08;;
23668;SDS011;12011;47.422;15.018;2023-07-13T06:29:19;0.94;;;0.94;;
23668;SDS011;12011;47.422;15.018;2023-07-13T06:31:49;1.05;;;1.05;;
23668;SDS011;12011;47.422;15.018;2023-07-13T06:34:18;0.93;;;0.93;;
23668;SDS011;12011;47.422;15.018;2023-07-13T06:36:48;1.08;;;1.08;;
23668;SDS011;12011;47.422;15.018;2023-07-13T06:39:20;1.24;;;1.24;;
23668;SDS011;12011;47.422;15.018;2023-07-13T06:41:50;0.87;;;0.87;;
23668;SDS011;12011;47.422;15.018;2023-07-13T06:44:19;1.05;;;1.05;;
23668;SDS011;12011;47.422;15.018;2023-07-13T06:46:49;1.21;;;1.21;;
23668;SDS011;12011;47.422;15.018;2023-07-13T06:49:18;1.07;;;1.07;;
23668;SDS011;12011;47.422;15.018;2023-07-13T06:51:48;1.24;;;1.24;;
23668;SDS011;12011;47.422;15.018;2023-07-13T06:54:20;1.26;;;1.26;;
23668;SDS011;12011;47.422;15.018;2023-07-13T06:56:49;1.25;;;1.25;;
23668;SDS011;12011;47.422;15.018;2023-07-13T06:59:19;1.23;;;1.23;;
23668;SDS011;12011;47.422;15.018;2023-07-13T07:01:48;1.15;;;1.15;;
23668;SDS011;12011;47.422;15.018;2023-07-13T07:04:18;1.25;;;1.25;;
23668;SDS011;12011;47.422;15.018;2023-07-13T07:06:47;1.32;;;1.32;;
23668;SDS011;12011;47.422;15.018;2023-07-13T07:09:19;1.01;;;1.01;;
23668;SDS011;12011;47.422;15.018;2023-07-13T07:11:49;1.10;;;1.10;;
23668;SDS011;12011;47.422;15.018;2023-07-13T07:14:18;1.10;;;1.10;;
23668;SDS011;12011;47.422;15.018;2023-07-13T07:16:49;1.26;;;1.26;;
23668;SDS011;12011;47.422;15.018;2023-07-13T07:19:19;1.11;;;1.11;;
23668;SDS011;12011;47.422;15.018;2023-07-13T07:21:48;1.22;;;1.22;;
23668;SDS011;12011;47.422;15.018;2023-07-13T07:24:20;1.14;;;1.14;;
23668;SDS011;12011;47.422;15.018;2023-07-13T07:26:50;1.06;;;1.06;;
23668;SDS011;12011;47.422;15.018;2023-07-13T07:29:19;1.27;;;1.27;;
23668;SDS011;12011;47.422;15.018;2023-07-13T07:31:51;1.24;;;1.24;;
23668;SDS011;12011;47.422;15.018;2023-07-13T07:34:21;1.08;;;1.08;;
23668;SDS011;12011;47.422;15.018;2023-07-13T07:36:50;0.95;;;0.95;;
23668;SDS011;12011;47.422;15.018;2023-07-13T07:39:24;1.01;;;1.01;;
23668;SDS011;12011;47.422;15.018;2023-07-13T07:41:54;1.08;;;1.08;;
23668;SDS011;12011;47.422;15.018;2023-07-13T07:44:23;1.04;;;1.04;;
23668;SDS011;12011;47.422;15.018;2023-07-13T07:46:54;1.29;;;1.29;;
23668;SDS011;12011;47.422;15.018;2023-07-13T07:49:23;0.96;;;0.96;;
23668;SDS011;12011;47.422;15.018;2023-07-13T07:51:53;0.88;;;0.88;;
23668;SDS011;12011;47.422;15.018;2023-07-13T07:54:25;0.97;;;0.97;;
23668;SDS011;12011;47.422;15.018;2023-07-13T07:56:55;1.02;;;1.02;;
23668;SDS011;12011;47.422;15.018;2023-07-13T07:59:25;1.01;;;1.01;;
23668;SDS011;12011;47.422;15.018;2023-07-13T08:01:54;1.00;;;1.00;;
23668;SDS011;12011;47.422;15.018;2023-07-13T08:04:24;0.77;;;0.77;;
23668;SDS011;12011;47.422;15.018;2023-07-13T08:06:53;1.11;;;1.11;;
23668;SDS011;12011;47.422;15.018;2023-07-13T08:09:26;0.99;;;0.99;;
23668;SDS011;12011;47.422;15.018;2023-07-13T08:12:08;0.90;;;0.90;;
23668;SDS011;12011;47.422;15.018;2023-07-13T08:14:38;0.76;;;0.76;;
23668;SDS011;12011;47.422;15.018;2023-07-13T08:17:07;0.91;;;0.91;;
23668;SDS011;12011;47.422;15.018;2023-07-13T08:19:37;0.81;;;0.81;;
23668;SDS011;12011;47.422;15.018;2023-07-13T08:22:06;1.00;;;1.00;;
23668;SDS011;12011;47.422;15.018;2023-07-13T08:24:39;0.97;;;0.97;;
23668;SDS011;12011;47.422;15.018;2023-07-13T08:27:08;0.86;;;0.86;;
23668;SDS011;12011;47.422;15.018;2023-07-13T08:29:39;0.84;;;0.84;;
23668;SDS011;12011;47.422;15.018;2023-07-13T08:32:08;0.69;;;0.69;;
23668;SDS011;12011;47.422;15.018;2023-07-13T08:34:39;0.66;;;0.66;;
23668;SDS011;12011;47.422;15.018;2023-07-13T08:37:09;0.72;;;0.72;;
23668;SDS011;12011;47.422;15.018;2023-07-13T08:39:41;0.82;;;0.82;;
23668;SDS011;12011;47.422;15.018;2023-07-13T08:42:12;0.72;;;0.72;;
23668;SDS011;12011;47.422;15.018;2023-07-13T08:44:56;0.78;;;0.78;;
23668;SDS011;12011;47.422;15.018;2023-07-13T08:47:44;0.62;;;0.62;;
23668;SDS011;12011;47.422;15.018;2023-07-13T08:50:21;0.65;;;0.65;;
23668;SDS011;12011;47.422;15.018;2023-07-13T08:52:59;0.73;;;0.73;;
23668;SDS011;12011;47.422;15.018;2023-07-13T08:55:35;0.55;;;0.55;;
23668;SDS011;12011;47.422;15.018;2023-07-13T08:58:09;0.73;;;0.73;;
23668;SDS011;12011;47.422;15.018;2023-07-13T09:00:44;0.71;;;0.71;;
23668;SDS011;12011;47.422;15.018;2023-07-13T09:03:37;0.71;;;0.71;;
23668;SDS011;12011;47.422;15.018;2023-07-13T09:06:15;0.55;;;0.55;;
23668;SDS011;12011;47.422;15.018;2023-07-13T09:08:58;0.72;;;0.72;;
23668;SDS011;12011;47.422;15.018;2023-07-13T09:11:42;0.78;;;0.78;;
23668;SDS011;12011;47.422;15.018;2023-07-13T09:14:26;0.67;;;0.67;;
23668;SDS011;12011;47.422;15.018;2023-07-13T09:17:11;0.59;;;0.59;;
23668;SDS011;12011;47.422;15.018;2023-07-13T09:19:47;0.78;;;0.78;;
23668;SDS011;12011;47.422;15.018;2023-07-13T09:22:24;0.69;;;0.69;;
23668;SDS011;12011;47.422;15.018;2023-07-13T09:25:02;0.67;;;0.67;;
23668;SDS011;12011;47.422;15.018;2023-07-13T09:27:49;0.75;;;0.75;;
23668;SDS011;12011;47.422;15.018;2023-07-13T09:30:28;0.66;;;0.66;;
23668;SDS011;12011;47.422;15.018;2023-07-13T09:33:07;0.68;;;0.68;;
23668;SDS011;12011;47.422;15.018;2023-07-13T09:35:37;0.77;;;0.77;;
23668;SDS011;12011;47.422;15.018;2023-07-13T09:38:11;0.67;;;0.67;;
23668;SDS011;12011;47.422;15.018;2023-07-13T09:40:46;0.72;;;0.72;;
23668;SDS011;12011;47.422;15.018;2023-07-13T09:43:39;0.67;;;0.67;;
23668;SDS011;12011;47.422;15.018;2023-07-13T09:46:29;0.63;;;0.63;;
23668;SDS011;12011;47.422;15.018;2023-07-13T09:48:59;0.61;;;0.61;;
23668;SDS011;12011;47.422;15.018;2023-07-13T09:51:29;0.61;;;0.61;;
23668;SDS011;12011;47.422;15.018;2023-07-13T09:54:00;0.52;;;0.52;;
23668;SDS011;12011;47.422;15.018;2023-07-13T09:56:29;0.53;;;0.53;;
23668;SDS011;12011;47.422;15.018;2023-07-13T09:59:02;0.51;;;0.51;;
23668;SDS011;12011;47.422;15.018;2023-07-13T10:01:33;0.60;;;0.60;;
23668;SDS011;12011;47.422;15.018;2023-07-13T10:04:10;0.69;;;0.69;;
23668;SDS011;12011;47.422;15.018;2023-07-13T10:06:41;0.52;;;0.52;;
23668;SDS011;12011;47.422;15.018;2023-07-13T10:09:13;0.70;;;0.70;;
23668;SDS011;12011;47.422;15.018;2023-07-13T10:11:44;0.60;;;0.60;;
23668;SDS011;12011;47.422;15.018;2023-07-13T10:14:18;0.59;;;0.59;;
23668;SDS011;12011;47.422;15.018;2023-07-13T10:16:52;0.60;;;0.60;;
23668;SDS011;12011;47.422;15.018;2023-07-13T10:19:31;0.75;;;0.75;;
23668;SDS011;12011;47.422;15.018;2023-07-13T10:22:10;0.60;;;0.60;;
23668;SDS011;12011;47.422;15.018;2023-07-13T10:24:50;0.70;;;0.70;;
23668;SDS011;12011;47.422;15.018;2023-07-13T10:27:23;0.77;;;0.77;;
23668;SDS011;12011;47.422;15.018;2023-07-13T10:30:06;0.60;;;0.60;;
23668;SDS011;12011;47.422;15.018;2023-07-13T10:32:45;0.53;;;0.53;;
23668;SDS011;12011;47.422;15.018;2023-07-13T10:35:16;0.64;;;0.64;;
23668;SDS011;12011;47.422;15.018;2023-07-13T10:37:49;0.58;;;0.58;;
23668;SDS011;12011;47.422;15.018;2023-07-13T10:40:27;0.59;;;0.59;;
23668;SDS011;12011;47.422;15.018;2023-07-13T10:43:05;0.65;;;0.65;;
23668;SDS011;12011;47.422;15.018;2023-07-13T10:45:50;0.84;;;0.84;;
23668;SDS011;12011;47.422;15.018;2023-07-13T10:48:20;0.63;;;0.63;;
23668;SDS011;12011;47.422;15.018;2023-07-13T10:50:52;0.75;;;0.75;;
23668;SDS011;12011;47.422;15.018;2023-07-13T10:53:28;0.86;;;0.86;;
23668;SDS011;12011;47.422;15.018;2023-07-13T10:56:00;0.73;;;0.73;;
23668;SDS011;12011;47.422;15.018;2023-07-13T10:58:34;0.76;;;0.76;;
23668;SDS011;12011;47.422;15.018;2023-07-13T11:01:10;0.69;;;0.69;;
23668;SDS011;12011;47.422;15.018;2023-07-13T11:03:47;0.63;;;0.63;;
23668;SDS011;12011;47.422;15.018;2023-07-13T11:06:30;0.81;;;0.81;;
23668;SDS011;12011;47.422;15.018;2023-07-13T11:09:17;0.70;;;0.70;;
23668;SDS011;12011;47.422;15.018;2023-07-13T11:12:09;0.76;;;0.76;;
23668;SDS011;12011;47.422;15.018;2023-07-13T11:15:10;0.77;;;0.77;;
23668;SDS011;12011;47.422;15.018;2023-07-13T11:17:53;0.80;;;0.80;;
23668;SDS011;12011;47.422;15.018;2023-07-13T11:20:33;0.79;;;0.79;;
23668;SDS011;12011;47.422;15.018;2023-07-13T11:23:09;0.88;;;0.88;;
23668;SDS011;12011;47.422;15.018;2023-07-13T11:25:58;1.07;;;1.07;;
23668;SDS011;12011;47.422;15.018;2023-07-13T11:28:30;0.75;;;0.75;;
23668;SDS011;12011;47.422;15.018;2023-07-13T11:31:13;0.85;;;0.85;;
23668;SDS011;12011;47.422;15.018;2023-07-13T11:33:55;0.81;;;0.81;;
23668;SDS011;12011;47.422;15.018;2023-07-13T11:36:30;0.96;;;0.96;;
23668;SDS011;12011;47.422;15.018;2023-07-13T11:39:12;0.88;;;0.88;;
23668;SDS011;12011;47.422;15.018;2023-07-13T11:41:50;0.79;;;0.79;;
23668;SDS011;12011;47.422;15.018;2023-07-13T11:44:24;0.80;;;0.80;;
23668;SDS011;12011;47.422;15.018;2023-07-13T11:46:56;0.89;;;0.89;;
23668;SDS011;12011;47.422;15.018;2023-07-13T11:49:36;0.81;;;0.81;;
23668;SDS011;12011;47.422;15.018;2023-07-13T11:52:12;0.91;;;0.91;;
23668;SDS011;12011;47.422;15.018;2023-07-13T11:54:48;0.95;;;0.95;;
23668;SDS011;12011;47.422;15.018;2023-07-13T11:57:23;0.82;;;0.82;;
23668;SDS011;12011;47.422;15.018;2023-07-13T11:59:59;1.01;;;1.01;;
23668;SDS011;12011;47.422;15.018;2023-07-13T12:02:39;1.02;;;1.02;;
23668;SDS011;12011;47.422;15.018;2023-07-13T12:05:18;1.01;;;1.01;;
23668;SDS011;12011;47.422;15.018;2023-07-13T12:07:49;0.99;;;0.99;;
23668;SDS011;12011;47.422;15.018;2023-07-13T12:10:21;0.97;;;0.97;;
23668;SDS011;12011;47.422;15.018;2023-07-13T12:12:55;1.02;;;1.02;;
23668;SDS011;12011;47.422;15.018;2023-07-13T12:15:28;0.99;;;0.99;;
23668;SDS011;12011;47.422;15.018;2023-07-13T12:18:11;1.21;;;1.21;;
23668;SDS011;12011;47.422;15.018;2023-07-13T12:20:47;1.04;;;1.04;;
23668;SDS011;12011;47.422;15.018;2023-07-13T12:23:20;1.15;;;1.15;;
23668;SDS011;12011;47.422;15.018;2023-07-13T12:25:54;1.13;;;1.13;;
23668;SDS011;12011;47.422;15.018;2023-07-13T12:28:30;1.32;;;1.32;;
23668;SDS011;12011;47.422;15.018;2023-07-13T12:31:06;1.14;;;1.14;;
23668;SDS011;12011;47.422;15.018;2023-07-13T12:33:56;1.27;;;1.27;;
23668;SDS011;12011;47.422;15.018;2023-07-13T12:36:32;1.29;;;1.29;;
23668;SDS011;12011;47.422;15.018;2023-07-13T12:39:10;1.32;;;1.32;;
23668;SDS011;12011;47.422;15.018;2023-07-13T12:41:49;1.37;;;1.37;;
23668;SDS011;12011;47.422;15.018;2023-07-13T12:44:27;1.27;;;1.27;;
23668;SDS011;12011;47.422;15.018;2023-07-13T12:47:06;1.40;;;1.40;;
23668;SDS011;12011;47.422;15.018;2023-07-13T12:49:42;1.63;;;1.63;;
23668;SDS011;12011;47.422;15.018;2023-07-13T12:52:35;1.33;;;1.33;;
23668;SDS011;12011;47.422;15.018;2023-07-13T12:55:10;1.33;;;1.33;;
23668;SDS011;12011;47.422;15.018;2023-07-13T12:57:49;1.42;;;1.42;;
23668;SDS011;12011;47.422;15.018;2023-07-13T13:00:22;1.39;;;1.39;;
23668;SDS011;12011;47.422;15.018;2023-07-13T13:02:54;1.41;;;1.41;;
23668;SDS011;12011;47.422;15.018;2023-07-13T13:05:28;1.42;;;1.42;;
23668;SDS011;12011;47.422;15.018;2023-07-13T13:08:03;1.42;;;1.42;;
23668;SDS011;12011;47.422;15.018;2023-07-13T13:10:33;1.59;;;1.59;;
23668;SDS011;12011;47.422;15.018;2023-07-13T13:13:03;1.64;;;1.64;;
23668;SDS011;12011;47.422;15.018;2023-07-13T13:15:34;1.64;;;1.64;;
23668;SDS011;12011;47.422;15.018;2023-07-13T13:18:08;1.55;;;1.55;;
23668;SDS011;12011;47.422;15.018;2023-07-13T13:20:45;1.54;;;1.54;;
23668;SDS011;12011;47.422;15.018;2023-07-13T13:23:18;1.56;;;1.56;;
23668;SDS011;12011;47.422;15.018;2023-07-13T13:25:51;1.55;;;1.55;;
23668;SDS011;12011;47.422;15.018;2023-07-13T13:28:21;1.56;;;1.56;;
23668;SDS011;12011;47.422;15.018;2023-07-13T13:30:53;1.47;;;1.47;;
23668;SDS011;12011;47.422;15.018;2023-07-13T13:33:22;1.56;;;1.56;;
23668;SDS011;12011;47.422;15.018;2023-07-13T13:35:53;1.72;;;1.72;;
23668;SDS011;12011;47.422;15.018;2023-07-13T13:38:26;1.71;;;1.71;;
23668;SDS011;12011;47.422;15.018;2023-07-13T13:40:56;1.86;;;1.86;;
23668;SDS011;12011;47.422;15.018;2023-07-13T13:43:26;1.48;;;1.48;;
23668;SDS011;12011;47.422;15.018;2023-07-13T13:45:57;1.50;;;1.50;;
23668;SDS011;12011;47.422;15.018;2023-07-13T13:48:30;1.81;;;1.81;;
23668;SDS011;12011;47.422;15.018;2023-07-13T13:51:06;1.58;;;1.58;;
23668;SDS011;12011;47.422;15.018;2023-07-13T13:53:48;1.47;;;1.47;;
23668;SDS011;12011;47.422;15.018;2023-07-13T13:56:19;1.60;;;1.60;;
23668;SDS011;12011;47.422;15.018;2023-07-13T13:58:49;1.61;;;1.61;;
23668;SDS011;12011;47.422;15.018;2023-07-13T14:01:20;1.68;;;1.68;;
23668;SDS011;12011;47.422;15.018;2023-07-13T14:03:51;1.69;;;1.69;;
23668;SDS011;12011;47.422;15.018;2023-07-13T14:06:20;1.46;;;1.46;;
23668;SDS011;12011;47.422;15.018;2023-07-13T14:08:58;1.60;;;1.60;;
23668;SDS011;12011;47.422;15.018;2023-07-13T14:11:28;1.60;;;1.60;;
23668;SDS011;12011;47.422;15.018;2023-07-13T14:14:01;1.70;;;1.70;;
23668;SDS011;12011;47.422;15.018;2023-07-13T14:16:31;1.78;;;1.78;;
23668;SDS011;12011;47.422;15.018;2023-07-13T14:19:02;1.78;;;1.78;;
23668;SDS011;12011;47.422;15.018;2023-07-13T14:21:32;1.60;;;1.60;;
23668;SDS011;12011;47.422;15.018;2023-07-13T14:24:04;1.68;;;1.68;;
23668;SDS011;12011;47.422;15.018;2023-07-13T14:26:37;1.94;;;1.94;;
23668;SDS011;12011;47.422;15.018;2023-07-13T14:29:13;1.98;;;1.98;;
23668;SDS011;12011;47.422;15.018;2023-07-13T14:31:47;1.95;;;1.95;;
23668;SDS011;12011;47.422;15.018;2023-07-13T14:34:17;1.79;;;1.79;;
23668;SDS011;12011;47.422;15.018;2023-07-13T14:36:48;1.65;;;1.65;;
23668;SDS011;12011;47.422;15.018;2023-07-13T14:39:23;1.80;;;1.80;;
23668;SDS011;12011;47.422;15.018;2023-07-13T14:41:54;1.53;;;1.53;;
23668;SDS011;12011;47.422;15.018;2023-07-13T14:44:26;1.37;;;1.37;;
23668;SDS011;12011;47.422;15.018;2023-07-13T14:46:58;1.36;;;1.36;;
23668;SDS011;12011;47.422;15.018;2023-07-13T14:49:33;1.55;;;1.55;;
23668;SDS011;12011;47.422;15.018;2023-07-13T14:52:09;1.51;;;1.51;;
23668;SDS011;12011;47.422;15.018;2023-07-13T14:54:44;1.53;;;1.53;;
23668;SDS011;12011;47.422;15.018;2023-07-13T14:57:16;1.34;;;1.34;;
23668;SDS011;12011;47.422;15.018;2023-07-13T14:59:48;1.65;;;1.65;;
23668;SDS011;12011;47.422;15.018;2023-07-13T15:02:25;1.53;;;1.53;;
23668;SDS011;12011;47.422;15.018;2023-07-13T15:05:01;1.97;;;1.97;;
23668;SDS011;12011;47.422;15.018;2023-07-13T15:07:37;1.67;;;1.67;;
23668;SDS011;12011;47.422;15.018;2023-07-13T15:10:14;1.56;;;1.56;;
23668;SDS011;12011;47.422;15.018;2023-07-13T15:12:47;1.74;;;1.73;;